sensor_id;sensor_type;location;lat;lon;timestamp;pressure;altitude;pressure_sealevel;temperature;humidity
74631;BME280;63138;55.082;38.804;2023-12-14T00:00:07;100740.53;;;-12.96;100.00
74631;BME280;63138;55.082;38.804;2023-12-14T00:02:34;100730.94;;;-12.92;100.00
74631;BME280;63138;55.082;38.804;2023-12-14T00:05:00;100729.19;;;-12.93;100.00
74631;BME280;63138;55.082;38.804;2023-12-14T00:07:26;100737.06;;;-12.99;100.00
74631;BME280;63138;55.082;38.804;2023-12-14T00:10:10;100756.25;;;-13.00;100.00
74631;BME280;63138;55.082;38.804;2023-12-14T00:12:38;100738.81;;;-12.98;100.00
74631;BME280;63138;55.082;38.804;2023-12-14T00:15:06;100730.09;;;-12.99;100.00
74631;BME280;63138;55.082;38.804;2023-12-14T00:17:32;100735.31;;;-12.99;100.00
74631;BME280;63138;55.082;38.804;2023-12-14T00:19:57;100737.94;;;-13.00;100.00
74631;BME280;63138;55.082;38.804;2023-12-14T00:22:23;100737.09;;;-13.01;100.00
74631;BME280;63138;55.082;38.804;2023-12-14T00:24:50;100734.47;;;-12.98;100.00
74631;BME280;63138;55.082;38.804;2023-12-14T00:27:16;100738.81;;;-13.00;100.00
74631;BME280;63138;55.082;38.804;2023-12-14T00:29:41;100724.84;;;-12.97;100.00
74631;BME280;63138;55.082;38.804;2023-12-14T00:32:07;100735.31;;;-12.96;100.00
74631;BME280;63138;55.082;38.804;2023-12-14T00:34:33;100740.53;;;-12.96;100.00
74631;BME280;63138;55.082;38.804;2023-12-14T00:36:59;100738.78;;;-12.95;100.00
74631;BME280;63138;55.082;38.804;2023-12-14T00:39:25;100739.69;;;-12.98;100.00
74631;BME280;63138;55.082;38.804;2023-12-14T00:41:51;100734.47;;;-12.98;100.00
74631;BME280;63138;55.082;38.804;2023-12-14T00:44:16;100736.19;;;-12.98;100.00
74631;BME280;63138;55.082;38.804;2023-12-14T00:46:42;100740.56;;;-13.02;100.00
74631;BME280;63138;55.082;38.804;2023-12-14T00:49:08;100726.56;;;-12.96;100.00
74631;BME280;63138;55.082;38.804;2023-12-14T00:51:34;100720.47;;;-12.95;100.00
74631;BME280;63138;55.082;38.804;2023-12-14T00:54:00;100729.19;;;-12.93;100.00
74631;BME280;63138;55.082;38.804;2023-12-14T00:56:26;100737.94;;;-12.96;100.00
74631;BME280;63138;55.082;38.804;2023-12-14T00:58:52;100728.34;;;-12.98;100.00
74631;BME280;63138;55.082;38.804;2023-12-14T01:01:18;100720.47;;;-12.95;100.00
74631;BME280;63138;55.082;38.804;2023-12-14T01:03:44;100732.69;;;-12.97;100.00
74631;BME280;63138;55.082;38.804;2023-12-14T01:06:10;100722.25;;;-12.97;100.00
74631;BME280;63138;55.082;38.804;2023-12-14T01:08:35;100721.38;;;-12.99;100.00
74631;BME280;63138;55.082;38.804;2023-12-14T01:11:02;100721.41;;;-13.04;100.00
74631;BME280;63138;55.082;38.804;2023-12-14T01:13:27;100726.56;;;-12.96;100.00
74631;BME280;63138;55.082;38.804;2023-12-14T01:15:54;100721.38;;;-12.99;100.00
74631;BME280;63138;55.082;38.804;2023-12-14T01:18:20;100733.56;;;-12.95;100.00
74631;BME280;63138;55.082;38.804;2023-12-14T01:20:46;100725.72;;;-12.98;100.00
74631;BME280;63138;55.082;38.804;2023-12-14T01:23:12;100731.78;;;-12.93;100.00
74631;BME280;63138;55.082;38.804;2023-12-14T01:25:38;100718.72;;;-12.95;100.00
74631;BME280;63138;55.082;38.804;2023-12-14T01:28:04;100712.63;;;-12.94;100.00
74631;BME280;63138;55.082;38.804;2023-12-14T01:30:30;100708.28;;;-12.96;100.00
74631;BME280;63138;55.082;38.804;2023-12-14T01:32:56;100720.47;;;-12.92;100.00
74631;BME280;63138;55.082;38.804;2023-12-14T01:35:22;100714.34;;;-12.90;100.00
74631;BME280;63138;55.082;38.804;2023-12-14T01:37:48;100717.88;;;-12.97;100.00
74631;BME280;63138;55.082;38.804;2023-12-14T01:40:14;100726.63;;;-12.98;100.00
74631;BME280;63138;55.082;38.804;2023-12-14T01:42:41;100726.56;;;-12.95;100.00
74631;BME280;63138;55.082;38.804;2023-12-14T01:45:07;100719.63;;;-12.94;100.00
74631;BME280;63138;55.082;38.804;2023-12-14T01:47:33;100736.19;;;-12.97;100.00
74631;BME280;63138;55.082;38.804;2023-12-14T01:49:59;100717.84;;;-12.92;100.00
74631;BME280;63138;55.082;38.804;2023-12-14T01:52:25;100728.31;;;-12.94;100.00
74631;BME280;63138;55.082;38.804;2023-12-14T01:54:51;100739.63;;;-12.93;100.00
74631;BME280;63138;55.082;38.804;2023-12-14T01:57:17;100741.34;;;-12.89;100.00
74631;BME280;63138;55.082;38.804;2023-12-14T01:59:43;100735.28;;;-12.91;100.00
74631;BME280;63138;55.082;38.804;2023-12-14T02:02:09;100745.78;;;-12.94;100.00
74631;BME280;63138;55.082;38.804;2023-12-14T02:04:35;100730.09;;;-12.97;100.00
74631;BME280;63138;55.082;38.804;2023-12-14T02:07:01;100726.56;;;-12.93;100.00
74631;BME280;63138;55.082;38.804;2023-12-14T02:09:28;100727.44;;;-12.93;100.00
74631;BME280;63138;55.082;38.804;2023-12-14T02:11:53;100734.41;;;-12.89;100.00
74631;BME280;63138;55.082;38.804;2023-12-14T02:14:21;100726.56;;;-12.89;100.00
74631;BME280;63138;55.082;38.804;2023-12-14T02:16:47;100726.56;;;-12.92;100.00
74631;BME280;63138;55.082;38.804;2023-12-14T02:19:13;100730.94;;;-12.94;100.00
74631;BME280;63138;55.082;38.804;2023-12-14T02:21:39;100736.16;;;-12.92;100.00
74631;BME280;63138;55.082;38.804;2023-12-14T02:24:05;100744.88;;;-12.93;100.00
74631;BME280;63138;55.082;38.804;2023-12-14T02:26:31;100730.94;;;-12.95;100.00
74631;BME280;63138;55.082;38.804;2023-12-14T02:28:56;100731.81;;;-12.96;100.00
74631;BME280;63138;55.082;38.804;2023-12-14T02:31:23;100728.34;;;-13.00;100.00
74631;BME280;63138;55.082;38.804;2023-12-14T02:33:48;100730.94;;;-12.95;100.00
74631;BME280;63138;55.082;38.804;2023-12-14T02:36:14;100715.25;;;-12.98;100.00
74631;BME280;63138;55.082;38.804;2023-12-14T02:38:40;100734.47;;;-12.99;100.00
74631;BME280;63138;55.082;38.804;2023-12-14T02:41:06;100742.31;;;-12.98;100.00
74631;BME280;63138;55.082;38.804;2023-12-14T02:43:32;100738.78;;;-12.97;100.00
74631;BME280;63138;55.082;38.804;2023-12-14T02:45:59;100746.63;;;-12.97;100.00
74631;BME280;63138;55.082;38.804;2023-12-14T02:48:28;100736.22;;;-13.01;100.00
74631;BME280;63138;55.082;38.804;2023-12-14T02:50:57;100738.81;;;-12.98;100.00
74631;BME280;63138;55.082;38.804;2023-12-14T02:53:25;100738.78;;;-12.94;100.00
74631;BME280;63138;55.082;38.804;2023-12-14T02:55:52;100737.88;;;-12.91;100.00
74631;BME280;63138;55.082;38.804;2023-12-14T02:58:19;100732.69;;;-12.94;100.00
74631;BME280;63138;55.082;38.804;2023-12-14T03:00:45;100741.41;;;-12.92;100.00
74631;BME280;63138;55.082;38.804;2023-12-14T03:03:11;100735.28;;;-12.91;100.00
74631;BME280;63138;55.082;38.804;2023-12-14T03:05:37;100730.94;;;-12.91;100.00
74631;BME280;63138;55.082;38.804;2023-12-14T03:08:02;100739.63;;;-12.90;100.00
74631;BME280;63138;55.082;38.804;2023-12-14T03:10:28;100737.88;;;-12.91;100.00
74631;BME280;63138;55.082;38.804;2023-12-14T03:12:54;100742.19;;;-12.84;100.00
74631;BME280;63138;55.082;38.804;2023-12-14T03:15:20;100728.28;;;-12.88;100.00
74631;BME280;63138;55.082;38.804;2023-12-14T03:17:48;100743.09;;;-12.90;100.00
74631;BME280;63138;55.082;38.804;2023-12-14T03:20:13;100743.09;;;-12.85;100.00
74631;BME280;63138;55.082;38.804;2023-12-14T03:22:40;100736.13;;;-12.89;100.00
74631;BME280;63138;55.082;38.804;2023-12-14T03:25:07;100741.34;;;-12.84;100.00
74631;BME280;63138;55.082;38.804;2023-12-14T03:27:33;100737.88;;;-12.86;100.00
74631;BME280;63138;55.082;38.804;2023-12-14T03:30:00;100743.09;;;-12.85;100.00
74631;BME280;63138;55.082;38.804;2023-12-14T03:32:26;100741.34;;;-12.86;100.00
74631;BME280;63138;55.082;38.804;2023-12-14T03:34:52;100744.81;;;-12.84;100.00
74631;BME280;63138;55.082;38.804;2023-12-14T03:37:18;100727.41;;;-12.85;100.00
74631;BME280;63138;55.082;38.804;2023-12-14T03:39:44;100736.09;;;-12.86;100.00
74631;BME280;63138;55.082;38.804;2023-12-14T03:42:09;100728.28;;;-12.89;100.00
74631;BME280;63138;55.082;38.804;2023-12-14T03:44:35;100722.19;;;-12.88;100.00
74631;BME280;63138;55.082;38.804;2023-12-14T03:47:01;100721.28;;;-12.85;100.00
74631;BME280;63138;55.082;38.804;2023-12-14T03:49:27;100737.00;;;-12.89;100.00
74631;BME280;63138;55.082;38.804;2023-12-14T03:51:53;100737.03;;;-12.92;100.00
74631;BME280;63138;55.082;38.804;2023-12-14T03:54:19;100732.66;;;-12.93;100.00
74631;BME280;63138;55.082;38.804;2023-12-14T03:56:45;100728.31;;;-12.92;100.00
74631;BME280;63138;55.082;38.804;2023-12-14T03:59:10;100724.78;;;-12.90;100.00
74631;BME280;63138;55.082;38.804;2023-12-14T04:01:36;100721.34;;;-12.92;100.00
74631;BME280;63138;55.082;38.804;2023-12-14T04:04:05;100733.53;;;-12.92;100.00
74631;BME280;63138;55.082;38.804;2023-12-14T04:06:31;100737.03;;;-12.92;100.00
74631;BME280;63138;55.082;38.804;2023-12-14T04:08:57;100728.28;;;-12.88;100.00
74631;BME280;63138;55.082;38.804;2023-12-14T04:11:22;100716.09;;;-12.89;100.00
74631;BME280;63138;55.082;38.804;2023-12-14T04:13:49;100725.66;;;-12.86;100.00
74631;BME280;63138;55.082;38.804;2023-12-14T04:16:19;100736.97;;;-12.82;100.00
74631;BME280;63138;55.082;38.804;2023-12-14T04:18:45;100724.75;;;-12.82;100.00
74631;BME280;63138;55.082;38.804;2023-12-14T04:21:11;100714.28;;;-12.82;100.00
74631;BME280;63138;55.082;38.804;2023-12-14T04:23:37;100723.84;;;-12.76;100.00
74631;BME280;63138;55.082;38.804;2023-12-14T04:26:03;100718.66;;;-12.82;100.00
74631;BME280;63138;55.082;38.804;2023-12-14T04:28:29;100719.50;;;-12.82;100.00
74631;BME280;63138;55.082;38.804;2023-12-14T04:30:55;100729.09;;;-12.79;100.00
74631;BME280;63138;55.082;38.804;2023-12-14T04:33:21;100719.50;;;-12.77;100.00
74631;BME280;63138;55.082;38.804;2023-12-14T04:35:47;100718.63;;;-12.76;100.00
74631;BME280;63138;55.082;38.804;2023-12-14T04:38:13;100704.66;;;-12.77;100.00
74631;BME280;63138;55.082;38.804;2023-12-14T04:40:39;100709.88;;;-12.74;100.00
74631;BME280;63138;55.082;38.804;2023-12-14T04:43:05;100703.72;;;-12.71;100.00
74631;BME280;63138;55.082;38.804;2023-12-14T04:45:31;100715.09;;;-12.74;100.00
74631;BME280;63138;55.082;38.804;2023-12-14T04:47:57;100696.78;;;-12.74;100.00
74631;BME280;63138;55.082;38.804;2023-12-14T04:50:23;100709.84;;;-12.69;100.00
74631;BME280;63138;55.082;38.804;2023-12-14T04:52:49;100707.25;;;-12.72;100.00
74631;BME280;63138;55.082;38.804;2023-12-14T04:55:15;100700.25;;;-12.68;100.00
74631;BME280;63138;55.082;38.804;2023-12-14T04:57:41;100702.84;;;-12.68;100.00
74631;BME280;63138;55.082;38.804;2023-12-14T05:00:08;100715.03;;;-12.66;100.00
74631;BME280;63138;55.082;38.804;2023-12-14T05:02:34;100707.25;;;-12.71;100.00
74631;BME280;63138;55.082;38.804;2023-12-14T05:04:59;100711.56;;;-12.66;100.00
74631;BME280;63138;55.082;38.804;2023-12-14T05:07:25;100706.34;;;-12.68;100.00
74631;BME280;63138;55.082;38.804;2023-12-14T05:09:52;100713.31;;;-12.68;100.00
74631;BME280;63138;55.082;38.804;2023-12-14T05:12:17;100699.41;;;-12.74;100.00
74631;BME280;63138;55.082;38.804;2023-12-14T05:14:43;100708.13;;;-12.73;100.00
74631;BME280;63138;55.082;38.804;2023-12-14T05:17:09;100714.19;;;-12.68;100.00
74631;BME280;63138;55.082;38.804;2023-12-14T05:19:36;100717.66;;;-12.67;100.00
74631;BME280;63138;55.082;38.804;2023-12-14T05:22:02;100709.88;;;-12.74;100.00
74631;BME280;63138;55.082;38.804;2023-12-14T05:24:29;100718.56;;;-12.68;100.00
74631;BME280;63138;55.082;38.804;2023-12-14T05:26:55;100728.13;;;-12.67;100.00
74631;BME280;63138;55.082;38.804;2023-12-14T05:29:21;100730.75;;;-12.67;100.00
74631;BME280;63138;55.082;38.804;2023-12-14T05:31:49;100731.63;;;-12.68;100.00
74631;BME280;63138;55.082;38.804;2023-12-14T05:34:16;100729.00;;;-12.67;100.00
74631;BME280;63138;55.082;38.804;2023-12-14T05:36:42;100730.72;;;-12.64;100.00
74631;BME280;63138;55.082;38.804;2023-12-14T05:39:08;100722.03;;;-12.66;100.00
74631;BME280;63138;55.082;38.804;2023-12-14T05:41:53;100729.00;;;-12.65;100.00
74631;BME280;63138;55.082;38.804;2023-12-14T05:44:21;100739.47;;;-12.65;100.00
74631;BME280;63138;55.082;38.804;2023-12-14T05:46:49;100730.72;;;-12.64;100.00
74631;BME280;63138;55.082;38.804;2023-12-14T05:49:16;100730.72;;;-12.60;100.00
74631;BME280;63138;55.082;38.804;2023-12-14T05:51:42;100724.63;;;-12.62;100.00
74631;BME280;63138;55.082;38.804;2023-12-14T05:54:09;100735.94;;;-12.60;100.00
74631;BME280;63138;55.082;38.804;2023-12-14T05:56:35;100742.03;;;-12.58;100.00
74631;BME280;63138;55.082;38.804;2023-12-14T05:59:01;100732.44;;;-12.60;100.00
74631;BME280;63138;55.082;38.804;2023-12-14T06:01:27;100735.94;;;-12.61;100.00
74631;BME280;63138;55.082;38.804;2023-12-14T06:03:53;100736.81;;;-12.61;100.00
74631;BME280;63138;55.082;38.804;2023-12-14T06:06:19;100742.03;;;-12.62;100.00
74631;BME280;63138;55.082;38.804;2023-12-14T06:08:45;100734.16;;;-12.56;100.00
74631;BME280;63138;55.082;38.804;2023-12-14T06:11:11;100726.31;;;-12.58;100.00
74631;BME280;63138;55.082;38.804;2023-12-14T06:13:37;100731.56;;;-12.59;100.00
74631;BME280;63138;55.082;38.804;2023-12-14T06:16:04;100735.88;;;-12.51;100.00
74631;BME280;63138;55.082;38.804;2023-12-14T06:18:30;100727.19;;;-12.59;100.00
74631;BME280;63138;55.082;38.804;2023-12-14T06:20:56;100727.19;;;-12.57;100.00
74631;BME280;63138;55.082;38.804;2023-12-14T06:23:22;100719.31;;;-12.56;100.00
74631;BME280;63138;55.082;38.804;2023-12-14T06:25:48;100726.31;;;-12.56;100.00
74631;BME280;63138;55.082;38.804;2023-12-14T06:28:14;100728.88;;;-12.53;100.00
74631;BME280;63138;55.082;38.804;2023-12-14T06:30:40;100723.63;;;-12.50;100.00
74631;BME280;63138;55.082;38.804;2023-12-14T06:33:24;100718.41;;;-12.50;100.00
74631;BME280;63138;55.082;38.804;2023-12-14T06:35:51;100728.88;;;-12.53;100.00
74631;BME280;63138;55.082;38.804;2023-12-14T06:38:17;100711.44;;;-12.51;100.00
74631;BME280;63138;55.082;38.804;2023-12-14T06:40:43;100709.69;;;-12.49;100.00
74631;BME280;63138;55.082;38.804;2023-12-14T06:43:09;100726.19;;;-12.42;100.00
74631;BME280;63138;55.082;38.804;2023-12-14T06:45:38;100734.94;;;-12.42;100.00
74631;BME280;63138;55.082;38.804;2023-12-14T06:48:05;100717.38;;;-12.35;100.00
74631;BME280;63138;55.082;38.804;2023-12-14T06:50:31;100734.00;;;-12.38;100.00
74631;BME280;63138;55.082;38.804;2023-12-14T06:52:57;100729.69;;;-12.40;100.00
74631;BME280;63138;55.082;38.804;2023-12-14T06:55:23;100724.44;;;-12.40;100.00
74631;BME280;63138;55.082;38.804;2023-12-14T06:57:50;100737.50;;;-12.39;100.00
74631;BME280;63138;55.082;38.804;2023-12-14T07:00:16;100731.38;;;-12.36;100.00
74631;BME280;63138;55.082;38.804;2023-12-14T07:03:01;100721.78;;;-12.39;100.00
74631;BME280;63138;55.082;38.804;2023-12-14T07:05:27;100711.31;;;-12.37;100.00
74631;BME280;63138;55.082;38.804;2023-12-14T07:07:54;100729.53;;;-12.26;100.00
74631;BME280;63138;55.082;38.804;2023-12-14T07:10:22;100735.59;;;-12.21;100.00
74631;BME280;63138;55.082;38.804;2023-12-14T07:12:48;100732.06;;;-12.17;100.00
74631;BME280;63138;55.082;38.804;2023-12-14T07:15:14;100739.91;;;-12.16;100.00
74631;BME280;63138;55.082;38.804;2023-12-14T07:17:41;100744.28;;;-12.13;100.00
74631;BME280;63138;55.082;38.804;2023-12-14T07:20:07;100746.06;;;-12.17;100.00
74631;BME280;63138;55.082;38.804;2023-12-14T07:22:34;100748.63;;;-12.14;100.00
74631;BME280;63138;55.082;38.804;2023-12-14T07:25:00;100761.78;;;-12.21;100.00
74631;BME280;63138;55.082;38.804;2023-12-14T07:27:25;100762.69;;;-12.24;100.00
74631;BME280;63138;55.082;38.804;2023-12-14T07:29:51;100760.94;;;-12.22;100.00
74631;BME280;63138;55.082;38.804;2023-12-14T07:32:18;100762.72;;;-12.27;100.00
74631;BME280;63138;55.082;38.804;2023-12-14T07:34:44;100764.41;;;-12.23;100.00
74631;BME280;63138;55.082;38.804;2023-12-14T07:37:10;100767.97;;;-12.30;100.00
74631;BME280;63138;55.082;38.804;2023-12-14T07:39:37;100767.94;;;-12.24;100.00
74631;BME280;63138;55.082;38.804;2023-12-14T07:42:03;100751.38;;;-12.27;100.00
74631;BME280;63138;55.082;38.804;2023-12-14T07:44:29;100759.16;;;-12.20;100.00
74631;BME280;63138;55.082;38.804;2023-12-14T07:46:56;100769.63;;;-12.18;100.00
74631;BME280;63138;55.082;38.804;2023-12-14T07:49:22;100747.75;;;-12.14;100.00
74631;BME280;63138;55.082;38.804;2023-12-14T07:51:49;100769.56;;;-12.12;100.00
74631;BME280;63138;55.082;38.804;2023-12-14T07:54:15;100752.97;;;-12.11;100.00
74631;BME280;63138;55.082;38.804;2023-12-14T07:56:41;100745.13;;;-12.11;100.00
74631;BME280;63138;55.082;38.804;2023-12-14T07:59:07;100732.84;;;-12.04;100.00
74631;BME280;63138;55.082;38.804;2023-12-14T08:01:36;100738.00;;;-11.95;100.00
74631;BME280;63138;55.082;38.804;2023-12-14T08:04:02;100736.06;;;-11.82;100.00
74631;BME280;63138;55.082;38.804;2023-12-14T08:06:29;100743.97;;;-11.87;100.00
74631;BME280;63138;55.082;38.804;2023-12-14T08:08:56;100743.84;;;-11.76;100.00
74631;BME280;63138;55.082;38.804;2023-12-14T08:11:25;100740.38;;;-11.77;100.00
74631;BME280;63138;55.082;38.804;2023-12-14T08:13:53;100751.75;;;-11.79;100.00
74631;BME280;63138;55.082;38.804;2023-12-14T08:16:19;100741.22;;;-11.75;100.00
74631;BME280;63138;55.082;38.804;2023-12-14T08:18:45;100749.81;;;-11.63;100.00
74631;BME280;63138;55.082;38.804;2023-12-14T08:21:12;100740.34;;;-11.74;100.00
74631;BME280;63138;55.082;38.804;2023-12-14T08:23:38;100749.72;;;-11.54;100.00
74631;BME280;63138;55.082;38.804;2023-12-14T08:26:04;100749.78;;;-11.59;100.00
74631;BME280;63138;55.082;38.804;2023-12-14T08:28:30;100735.84;;;-11.62;100.00
74631;BME280;63138;55.082;38.804;2023-12-14T08:30:56;100733.22;;;-11.61;100.00
74631;BME280;63138;55.082;38.804;2023-12-14T08:33:24;100723.59;;;-11.60;100.00
74631;BME280;63138;55.082;38.804;2023-12-14T08:35:50;100728.81;;;-11.60;100.00
74631;BME280;63138;55.082;38.804;2023-12-14T08:38:17;100727.97;;;-11.61;100.00
74631;BME280;63138;55.082;38.804;2023-12-14T08:40:43;100716.63;;;-11.63;100.00
74631;BME280;63138;55.082;38.804;2023-12-14T08:43:10;100716.63;;;-11.63;100.00
74631;BME280;63138;55.082;38.804;2023-12-14T08:45:36;100707.88;;;-11.63;100.00
74631;BME280;63138;55.082;38.804;2023-12-14T08:48:01;100722.66;;;-11.58;100.00
74631;BME280;63138;55.082;38.804;2023-12-14T08:50:27;100719.16;;;-11.54;100.00
74631;BME280;63138;55.082;38.804;2023-12-14T08:52:54;100713.81;;;-11.49;100.00
74631;BME280;63138;55.082;38.804;2023-12-14T08:55:20;100720.03;;;-11.55;100.00
74631;BME280;63138;55.082;38.804;2023-12-14T08:57:46;100724.56;;;-11.69;100.00
74631;BME280;63138;55.082;38.804;2023-12-14T09:00:12;100722.75;;;-11.65;100.00
74631;BME280;63138;55.082;38.804;2023-12-14T09:02:38;100741.97;;;-11.65;100.00
74631;BME280;63138;55.082;38.804;2023-12-14T09:05:05;100739.19;;;-11.51;100.00
74631;BME280;63138;55.082;38.804;2023-12-14T09:07:32;100745.28;;;-11.47;100.00
74631;BME280;63138;55.082;38.804;2023-12-14T09:09:58;100741.13;;;-11.67;100.00
74631;BME280;63138;55.082;38.804;2023-12-14T09:12:24;100734.91;;;-11.57;100.00
74631;BME280;63138;55.082;38.804;2023-12-14T09:14:50;100735.91;;;-11.68;100.00
74631;BME280;63138;55.082;38.804;2023-12-14T09:17:16;100721.91;;;-11.66;100.00
74631;BME280;63138;55.082;38.804;2023-12-14T09:19:42;100721.06;;;-11.66;100.00
74631;BME280;63138;55.082;38.804;2023-12-14T09:22:09;100731.44;;;-11.59;100.00
74631;BME280;63138;55.082;38.804;2023-12-14T09:24:35;100748.94;;;-11.61;100.00
74631;BME280;63138;55.082;38.804;2023-12-14T09:27:01;100723.56;;;-11.59;100.00
74631;BME280;63138;55.082;38.804;2023-12-14T09:29:27;100728.81;;;-11.60;100.00
74631;BME280;63138;55.082;38.804;2023-12-14T09:31:53;100723.72;;;-11.71;100.00
74631;BME280;63138;55.082;38.804;2023-12-14T09:34:20;100713.13;;;-11.62;100.00
74631;BME280;63138;55.082;38.804;2023-12-14T09:36:46;100732.28;;;-11.55;100.00
74631;BME280;63138;55.082;38.804;2023-12-14T09:39:11;100719.09;;;-11.50;100.00
74631;BME280;63138;55.082;38.804;2023-12-14T09:41:38;100733.91;;;-11.46;100.00
74631;BME280;63138;55.082;38.804;2023-12-14T09:44:06;100728.63;;;-11.43;100.00
74631;BME280;63138;55.082;38.804;2023-12-14T09:46:37;100717.25;;;-11.42;100.00
74631;BME280;63138;55.082;38.804;2023-12-14T09:49:04;100718.34;;;-11.62;100.00
74631;BME280;63138;55.082;38.804;2023-12-14T09:51:32;100716.59;;;-11.61;100.00
74631;BME280;63138;55.082;38.804;2023-12-14T09:53:58;100723.59;;;-11.62;100.00
74631;BME280;63138;55.082;38.804;2023-12-14T09:56:25;100732.38;;;-11.64;100.00
74631;BME280;63138;55.082;38.804;2023-12-14T09:58:51;100721.75;;;-11.52;100.00
74631;BME280;63138;55.082;38.804;2023-12-14T10:01:26;100715.56;;;-11.46;100.00
74631;BME280;63138;55.082;38.804;2023-12-14T10:04:11;100726.09;;;-11.51;100.00
74631;BME280;63138;55.082;38.804;2023-12-14T10:06:42;100717.38;;;-11.53;100.00
74631;BME280;63138;55.082;38.804;2023-12-14T10:09:09;100720.81;;;-11.46;100.00
74631;BME280;63138;55.082;38.804;2023-12-14T10:11:36;100714.81;;;-11.58;100.00
74631;BME280;63138;55.082;38.804;2023-12-14T10:14:02;100722.59;;;-11.48;100.00
74631;BME280;63138;55.082;38.804;2023-12-14T10:16:31;100712.03;;;-11.45;100.00
74631;BME280;63138;55.082;38.804;2023-12-14T10:18:58;100687.59;;;-11.47;100.00
74631;BME280;63138;55.082;38.804;2023-12-14T10:21:26;100698.03;;;-11.41;100.00
74631;BME280;63138;55.082;38.804;2023-12-14T10:23:56;100696.38;;;-11.48;100.00
74631;BME280;63138;55.082;38.804;2023-12-14T10:26:23;100701.66;;;-11.53;100.00
74631;BME280;63138;55.082;38.804;2023-12-14T10:28:50;100697.22;;;-11.48;100.00
74631;BME280;63138;55.082;38.804;2023-12-14T10:31:20;100691.06;;;-11.45;100.00
74631;BME280;63138;55.082;38.804;2023-12-14T10:33:47;100686.75;;;-11.48;100.00
74631;BME280;63138;55.082;38.804;2023-12-14T10:36:15;100682.31;;;-11.44;100.00
74631;BME280;63138;55.082;38.804;2023-12-14T10:38:43;100684.97;;;-11.47;100.00
74631;BME280;63138;55.082;38.804;2023-12-14T10:41:13;100669.22;;;-11.46;100.00
74631;BME280;63138;55.082;38.804;2023-12-14T10:43:39;100670.03;;;-11.39;100.00
74631;BME280;63138;55.082;38.804;2023-12-14T10:46:07;100655.16;;;-11.40;100.00
74631;BME280;63138;55.082;38.804;2023-12-14T10:48:35;100659.44;;;-11.33;100.00
74631;BME280;63138;55.082;38.804;2023-12-14T10:51:11;100643.59;;;-11.25;100.00
74631;BME280;63138;55.082;38.804;2023-12-14T10:53:38;100646.25;;;-11.27;100.00
74631;BME280;63138;55.082;38.804;2023-12-14T10:56:07;100670.94;;;-11.43;100.00
74631;BME280;63138;55.082;38.804;2023-12-14T10:58:55;100664.97;;;-11.53;100.00
74631;BME280;63138;55.082;38.804;2023-12-14T11:01:23;100653.63;;;-11.54;100.00
74631;BME280;63138;55.082;38.804;2023-12-14T11:03:54;100662.22;;;-11.45;100.00
74631;BME280;63138;55.082;38.804;2023-12-14T11:06:30;100663.13;;;-11.46;100.00
74631;BME280;63138;55.082;38.804;2023-12-14T11:09:02;100665.81;;;-11.52;100.00
74631;BME280;63138;55.082;38.804;2023-12-14T11:11:42;100675.50;;;-11.58;100.00
74631;BME280;63138;55.082;38.804;2023-12-14T11:14:11;100659.81;;;-11.61;100.00
74631;BME280;63138;55.082;38.804;2023-12-14T11:16:44;100669.41;;;-11.61;100.00
74631;BME280;63138;55.082;38.804;2023-12-14T11:24:37;100676.31;;;-11.54;100.00
74631;BME280;63138;55.082;38.804;2023-12-14T11:27:06;100675.50;;;-11.58;100.00
74631;BME280;63138;55.082;38.804;2023-12-14T11:29:33;100666.75;;;-11.57;100.00
74631;BME280;63138;55.082;38.804;2023-12-14T11:32:01;100657.13;;;-11.58;100.00
74631;BME280;63138;55.082;38.804;2023-12-14T11:34:27;100664.09;;;-11.54;100.00
74631;BME280;63138;55.082;38.804;2023-12-14T11:36:54;100658.91;;;-11.58;100.00
74631;BME280;63138;55.082;38.804;2023-12-14T11:39:21;100660.69;;;-11.62;100.00
74631;BME280;63138;55.082;38.804;2023-12-14T11:42:04;100663.25;;;-11.56;100.00
74631;BME280;63138;55.082;38.804;2023-12-14T11:44:30;100655.34;;;-11.54;100.00
74631;BME280;63138;55.082;38.804;2023-12-14T11:46:56;100643.16;;;-11.57;100.00
74631;BME280;63138;55.082;38.804;2023-12-14T11:49:26;100644.81;;;-11.49;100.00
74631;BME280;63138;55.082;38.804;2023-12-14T11:51:56;100649.22;;;-11.51;100.00
74631;BME280;63138;55.082;38.804;2023-12-14T11:54:22;100645.75;;;-11.54;100.00
74631;BME280;63138;55.082;38.804;2023-12-14T11:56:49;100645.75;;;-11.55;100.00
74631;BME280;63138;55.082;38.804;2023-12-14T11:59:18;100640.50;;;-11.54;100.00
74631;BME280;63138;55.082;38.804;2023-12-14T12:01:59;100645.66;;;-11.49;100.00
74631;BME280;63138;55.082;38.804;2023-12-14T12:04:26;100648.34;;;-11.52;100.00
74631;BME280;63138;55.082;38.804;2023-12-14T12:07:00;100637.78;;;-11.47;100.00
74631;BME280;63138;55.082;38.804;2023-12-14T12:09:34;100646.56;;;-11.50;100.00
74631;BME280;63138;55.082;38.804;2023-12-14T12:12:00;100635.25;;;-11.54;100.00
74631;BME280;63138;55.082;38.804;2023-12-14T12:14:27;100644.81;;;-11.51;100.00
74631;BME280;63138;55.082;38.804;2023-12-14T12:16:53;100646.56;;;-11.48;100.00
74631;BME280;63138;55.082;38.804;2023-12-14T12:19:20;100637.81;;;-11.49;100.00
74631;BME280;63138;55.082;38.804;2023-12-14T12:21:46;100637.88;;;-11.52;100.00
74631;BME280;63138;55.082;38.804;2023-12-14T12:24:12;100639.59;;;-11.52;100.00